createdAt,value
2022-11-10T00:02:16.404Z,100966.66
2022-11-10T00:04:44.184Z,100958.16
2022-11-10T00:07:12.056Z,100969.25
2022-11-10T00:09:41.423Z,100968.63
2022-11-10T00:12:09.290Z,100972.19
2022-11-10T00:14:54.714Z,100966.06
2022-11-10T00:17:22.351Z,100970.84
2022-11-10T00:19:50.228Z,100973.94
2022-11-10T00:22:18.057Z,100972.69
2022-11-10T00:24:47.366Z,100979.69
2022-11-10T00:27:15.740Z,100978.66
2022-11-10T00:29:43.674Z,100970.59
2022-11-10T00:32:12.038Z,100978.47
2022-11-10T00:34:39.905Z,100985.16
2022-11-10T00:37:07.992Z,100978.69
2022-11-10T00:39:36.817Z,100990.19
2022-11-10T00:42:06.327Z,100982.34
2022-11-10T00:44:34.101Z,100994.69
2022-11-10T00:47:02.000Z,101000.31
2022-11-10T00:49:29.826Z,101005.09
2022-11-10T00:51:57.843Z,101015.53
2022-11-10T00:54:25.825Z,101015.88
2022-11-10T00:56:53.608Z,101024.22
2022-11-10T00:59:23.050Z,101030.59
2022-11-10T01:01:50.843Z,101034.25
2022-11-10T01:04:18.867Z,101039.13
2022-11-10T01:06:48.059Z,101045.50
2022-11-10T01:09:16.301Z,101046.34
2022-11-10T01:11:44.124Z,101056.59
2022-11-10T01:14:12.132Z,101071.88
2022-11-10T01:16:41.331Z,101068.16
2022-11-10T01:19:09.039Z,101071.78
2022-11-10T01:21:36.760Z,101080.31
2022-11-10T01:24:04.780Z,101072.31
2022-11-10T01:26:32.549Z,101078.72
2022-11-10T01:29:00.745Z,101085.72
2022-11-10T01:31:28.506Z,101081.38
2022-11-10T01:33:59.987Z,101083.22
2022-11-10T01:36:27.869Z,101084.34
2022-11-10T01:38:55.579Z,101087.38
2022-11-10T01:41:23.594Z,101089.03
2022-11-10T01:43:51.465Z,101095.75
2022-11-10T01:46:19.232Z,101100.41
2022-11-10T01:48:49.199Z,101101.16
2022-11-10T01:51:22.083Z,101101.47
2022-11-10T01:53:54.713Z,101108.97
2022-11-10T01:56:25.593Z,101098.97
2022-11-10T01:58:57.610Z,101107.66
2022-11-10T02:01:25.825Z,101099.53
2022-11-10T02:03:56.956Z,101109.44
2022-11-10T02:06:29.297Z,101113.78
2022-11-10T02:08:58.501Z,101112.28
2022-11-10T02:11:26.476Z,101102.41
2022-11-10T02:13:54.846Z,101095.53
2022-11-10T02:16:23.173Z,101101.44
2022-11-10T02:18:51.154Z,101103.72
2022-11-10T02:21:21.523Z,101107.50
2022-11-10T02:23:53.221Z,101110.75
2022-11-10T02:26:24.273Z,101119.03
2022-11-10T02:28:51.985Z,101121.28
2022-11-10T02:31:19.768Z,101126.00
2022-11-10T02:33:48.080Z,101134.16
2022-11-10T02:36:15.936Z,101131.63
2022-11-10T02:38:45.162Z,101135.59
2022-11-10T02:41:12.957Z,101128.00
2022-11-10T02:43:41.045Z,101137.50
2022-11-10T02:46:08.694Z,101133.56
2022-11-10T02:48:36.449Z,101135.69
2022-11-10T02:51:04.272Z,101137.09
2022-11-10T02:53:32.032Z,101136.41
2022-11-10T02:56:01.084Z,101130.25
2022-11-10T02:58:28.762Z,101118.47
2022-11-10T03:00:56.642Z,101136.13
2022-11-10T03:03:24.829Z,101132.19
2022-11-10T03:05:52.732Z,101133.56
2022-11-10T03:08:20.572Z,101140.28
2022-11-10T03:10:48.476Z,101140.88
2022-11-10T03:13:17.690Z,101149.59
2022-11-10T03:15:45.476Z,101152.16
2022-11-10T03:18:13.253Z,101159.44
2022-11-10T03:20:41.045Z,101169.25
2022-11-10T03:23:09.247Z,101167.56
2022-11-10T03:25:38.467Z,101174.84
2022-11-10T03:28:06.227Z,101173.03
2022-11-10T03:30:35.525Z,101175.66
2022-11-10T03:33:03.493Z,101181.50
2022-11-10T03:35:31.612Z,101168.63
2022-11-10T03:37:59.530Z,101183.72
2022-11-10T03:40:27.464Z,101195.31
2022-11-10T03:42:55.374Z,101206.22
2022-11-10T03:45:23.240Z,101212.06
2022-11-10T03:47:52.952Z,101217.69
2022-11-10T03:50:20.928Z,101215.72
2022-11-10T03:52:48.787Z,101207.50
2022-11-10T03:55:18.784Z,101207.25
2022-11-10T03:57:46.546Z,101218.13
2022-11-10T04:00:15.617Z,101228.13
2022-11-10T04:02:43.491Z,101227.31
2022-11-10T04:05:30.409Z,101226.47
2022-11-10T04:08:19.414Z,101241.16
2022-11-10T04:10:47.409Z,101247.59
2022-11-10T04:13:32.507Z,101250.09
2022-11-10T04:16:00.378Z,101245.13
2022-11-10T04:18:29.812Z,101256.16
2022-11-10T04:21:01.667Z,101246.34
2022-11-10T04:23:34.878Z,101247.88
2022-11-10T04:26:22.827Z,101253.84
2022-11-10T04:28:52.564Z,101263.38
2022-11-10T04:31:22.344Z,101266.16
2022-11-10T04:33:50.966Z,101261.03
2022-11-10T04:36:21.824Z,101266.72
2022-11-10T04:38:49.945Z,101268.63
2022-11-10T04:41:18.566Z,101267.94
2022-11-10T04:43:46.438Z,101275.56
2022-11-10T04:46:24.395Z,101274.72
2022-11-10T04:48:53.638Z,101281.47
2022-11-10T04:51:25.765Z,101284.59
2022-11-10T04:53:53.895Z,101274.56
2022-11-10T04:56:23.078Z,101265.28
2022-11-10T04:58:51.516Z,101266.13
2022-11-10T05:01:21.493Z,101262.88
2022-11-10T05:03:50.355Z,101278.38
2022-11-10T05:06:19.577Z,101284.47
2022-11-10T05:08:49.127Z,101282.19
2022-11-10T05:11:17.865Z,101283.03
2022-11-10T05:13:46.793Z,101286.97
2022-11-10T05:16:15.347Z,101297.03
2022-11-10T05:18:43.615Z,101291.44
2022-11-10T05:21:11.585Z,101290.97
2022-11-10T05:23:39.607Z,101302.88
2022-11-10T05:26:10.854Z,101312.06
2022-11-10T05:28:39.487Z,101320.09
2022-11-10T05:31:07.766Z,101326.94
2022-11-10T05:33:36.398Z,101325.44
2022-11-10T05:36:04.934Z,101333.81
2022-11-10T05:38:33.129Z,101351.03
2022-11-10T05:41:01.070Z,101363.34
2022-11-10T05:43:30.588Z,101362.97
2022-11-10T05:45:58.602Z,101366.75
2022-11-10T05:48:26.414Z,101372.50
2022-11-10T05:50:54.389Z,101369.31
2022-11-10T05:53:22.624Z,101372.38
2022-11-10T05:55:50.689Z,101378.97
2022-11-10T05:58:18.810Z,101378.66
2022-11-10T06:00:48.105Z,101388.31
2022-11-10T06:03:18.174Z,101392.66
2022-11-10T06:05:47.177Z,101389.66
2022-11-10T06:08:15.544Z,101398.13
2022-11-10T06:10:43.520Z,101396.66
2022-11-10T06:13:11.896Z,101398.72
2022-11-10T06:15:40.154Z,101394.59
2022-11-10T06:18:09.346Z,101399.22
2022-11-10T06:20:37.191Z,101411.44
2022-11-10T06:23:07.041Z,101425.53
2022-11-10T06:25:37.084Z,101441.28
2022-11-10T06:28:05.484Z,101446.91
2022-11-10T06:30:35.407Z,101448.06
2022-11-10T06:33:03.785Z,101448.88
2022-11-10T06:35:33.395Z,101455.22
2022-11-10T06:38:03.200Z,101458.91
2022-11-10T06:40:31.948Z,101468.47
2022-11-10T06:43:00.167Z,101475.00
2022-11-10T06:45:29.221Z,101479.91
2022-11-10T06:48:04.669Z,101476.13
2022-11-10T06:50:34.576Z,101483.69
2022-11-10T06:53:02.979Z,101498.84
2022-11-10T06:55:31.284Z,101505.31
2022-11-10T06:57:59.309Z,101507.72
2022-11-10T07:00:28.405Z,101512.47
2022-11-10T07:03:03.949Z,101517.88
2022-11-10T07:05:35.206Z,101515.72
2022-11-10T07:08:04.135Z,101520.84
2022-11-10T07:10:32.325Z,101520.84
2022-11-10T07:13:00.447Z,101527.84
2022-11-10T07:15:28.455Z,101532.59
2022-11-10T07:17:56.460Z,101525.59
2022-11-10T07:20:26.044Z,101530.50
2022-11-10T07:23:00.756Z,101533.16
2022-11-10T07:25:29.488Z,101531.25
2022-11-10T07:27:58.648Z,101538.38
2022-11-10T07:30:28.004Z,101544.56
2022-11-10T07:33:00.531Z,101549.41
2022-11-10T07:35:29.315Z,101553.75
2022-11-10T07:37:57.752Z,101562.19
2022-11-10T07:40:27.095Z,101558.81
2022-11-10T07:42:54.928Z,101564.41
2022-11-10T07:45:22.622Z,101574.91
2022-11-10T07:47:50.513Z,101582.28
2022-11-10T07:50:19.005Z,101582.88
2022-11-10T07:52:46.648Z,101585.97
2022-11-10T07:55:14.347Z,101592.16
2022-11-10T07:57:43.511Z,101599.16
2022-11-10T08:00:13.468Z,101598.75
2022-11-10T08:02:41.356Z,101596.59
2022-11-10T08:05:09.959Z,101601.78
2022-11-10T08:07:37.776Z,101613.81
2022-11-10T08:10:06.051Z,101603.19
2022-11-10T08:12:33.988Z,101621.03
2022-11-10T08:15:03.177Z,101612.69
2022-11-10T08:17:30.919Z,101625.44
2022-11-10T08:19:58.581Z,101637.88
2022-11-10T08:22:26.651Z,101631.31
2022-11-10T08:24:54.291Z,101634.19
2022-11-10T08:27:21.998Z,101635.34
2022-11-10T08:29:49.730Z,101645.09
2022-11-10T08:32:18.818Z,101649.34
2022-11-10T08:34:46.581Z,101653.88
2022-11-10T08:37:14.297Z,101647.88
2022-11-10T08:39:42.153Z,101647.00
2022-11-10T08:42:09.925Z,101641.66
2022-11-10T08:44:37.680Z,101645.91
2022-11-10T08:47:05.578Z,101646.34
2022-11-10T08:49:34.851Z,101654.59
2022-11-10T08:52:02.666Z,101651.63
2022-11-10T08:54:30.537Z,101644.13
2022-11-10T08:56:58.316Z,101647.25
2022-11-10T08:59:25.917Z,101648.47
2022-11-10T09:01:53.677Z,101660.56
2022-11-10T09:04:21.512Z,101654.34
2022-11-10T09:06:50.617Z,101661.13
2022-11-10T09:09:18.491Z,101661.47
2022-11-10T09:11:46.208Z,101664.88
2022-11-10T09:14:14.140Z,101666.25
2022-11-10T09:16:41.980Z,101679.34
2022-11-10T09:19:09.879Z,101673.56
2022-11-10T09:21:37.718Z,101662.47
2022-11-10T09:24:08.177Z,101677.84
2022-11-10T09:26:36.111Z,101676.97
2022-11-10T09:29:03.913Z,101680.44
2022-11-10T09:31:31.544Z,101683.84
2022-11-10T09:33:59.216Z,101686.75
2022-11-10T09:36:26.954Z,101678.84
2022-11-10T09:38:54.639Z,101683.06
2022-11-10T09:41:23.610Z,101688.38
2022-11-10T09:44:02.540Z,101693.31
2022-11-10T09:46:36.675Z,101691.66
2022-11-10T09:49:10.673Z,101692.41
2022-11-10T09:51:47.103Z,101699.31
2022-11-10T09:54:30.354Z,101709.69
2022-11-10T09:57:01.590Z,101705.97
2022-11-10T09:59:32.239Z,101699.75
2022-11-10T10:02:04.155Z,101702.31
2022-11-10T10:04:51.964Z,101709.06
2022-11-10T10:07:26.392Z,101710.94
2022-11-10T10:10:01.935Z,101701.88
2022-11-10T10:12:50.855Z,101711.34
2022-11-10T10:15:29.687Z,101700.28
2022-11-10T10:18:11.124Z,101701.66
2022-11-10T10:20:50.818Z,101691.72
2022-11-10T10:23:40.699Z,101704.09
2022-11-10T10:26:16.600Z,101717.84
2022-11-10T10:28:48.019Z,101714.75
2022-11-10T10:31:20.978Z,101711.91
2022-11-10T10:33:49.622Z,101711.81
2022-11-10T10:36:20.827Z,101714.75
2022-11-10T10:38:51.934Z,101721.41
2022-11-10T10:41:25.207Z,101716.22
2022-11-10T10:43:57.150Z,101712.78
2022-11-10T10:46:28.390Z,101710.81
2022-11-10T10:49:29.944Z,101705.38
2022-11-10T10:52:06.840Z,101709.75
2022-11-10T10:54:36.565Z,101713.44
2022-11-10T10:57:07.578Z,101711.56
2022-11-10T10:59:36.643Z,101720.38
2022-11-10T11:02:04.313Z,101717.00
2022-11-10T11:04:34.836Z,101705.81
2022-11-10T11:07:04.510Z,101707.69
2022-11-10T11:09:40.941Z,101708.03
2022-11-10T11:12:11.986Z,101709.09
2022-11-10T11:14:45.862Z,101699.16
2022-11-10T11:17:18.752Z,101690.25
2022-11-10T11:19:46.752Z,101702.06
2022-11-10T11:22:46.310Z,101701.72
2022-11-10T11:25:23.549Z,101701.53
2022-11-10T11:28:03.818Z,101702.50
2022-11-10T11:30:47.765Z,101708.25
2022-11-10T11:33:34.432Z,101711.88
2022-11-10T11:36:10.340Z,101709.22
2022-11-10T11:38:51.818Z,101715.41
2022-11-10T11:41:31.373Z,101721.44
2022-11-10T11:44:20.289Z,101714.50
2022-11-10T11:47:00.302Z,101718.63
2022-11-10T11:50:00.087Z,101719.06
2022-11-10T11:52:36.044Z,101721.03
2022-11-10T11:55:14.849Z,101726.06
2022-11-10T11:58:00.143Z,101729.44
2022-11-10T12:00:30.261Z,101723.72
2022-11-10T12:03:23.094Z,101732.63
2022-11-10T12:05:59.058Z,101733.72
2022-11-10T12:08:37.670Z,101733.72
2022-11-10T12:11:11.587Z,101734.81
2022-11-10T12:13:50.026Z,101738.59
2022-11-10T12:16:23.852Z,101736.59
2022-11-10T12:19:05.491Z,101726.56
2022-11-10T12:21:43.481Z,101737.94
2022-11-10T12:24:46.271Z,101725.97
2022-11-10T12:27:18.842Z,101723.44
2022-11-10T12:29:52.267Z,101719.41
2022-11-10T12:32:26.889Z,101713.13
2022-11-10T12:35:00.199Z,101723.31
2022-11-10T12:37:33.234Z,101716.22
2022-11-10T12:40:06.810Z,101727.16
2022-11-10T12:42:38.780Z,101724.91
2022-11-10T12:45:09.682Z,101736.66
2022-11-10T12:47:43.082Z,101743.44
2022-11-10T12:50:35.233Z,101742.00
2022-11-10T12:53:06.904Z,101752.16
2022-11-10T12:55:39.540Z,101749.06
2022-11-10T12:58:07.956Z,101748.09
2022-11-10T13:00:42.693Z,101745.56
2022-11-10T13:03:16.151Z,101743.91
2022-11-10T13:05:46.232Z,101745.28
2022-11-10T13:08:34.120Z,101746.47
2022-11-10T13:11:06.510Z,101747.91
2022-11-10T13:13:46.465Z,101749.69
2022-11-10T13:16:49.454Z,101761.38
2022-11-10T13:19:52.891Z,101761.78
2022-11-10T13:22:32.748Z,101763.09
2022-11-10T13:25:38.780Z,101768.09
2022-11-10T13:28:09.772Z,101764.25
2022-11-10T13:30:46.049Z,101777.13
2022-11-10T13:33:36.940Z,101771.19
2022-11-10T13:36:06.657Z,101774.47
2022-11-10T13:38:40.036Z,101770.91
2022-11-10T13:41:25.231Z,101769.50
2022-11-10T13:43:54.508Z,101766.31
2022-11-10T13:46:32.176Z,101773.97
2022-11-10T13:49:47.393Z,101771.53
2022-11-10T13:52:20.246Z,101774.03
2022-11-10T13:55:03.680Z,101776.19
2022-11-10T13:57:36.431Z,101781.31
2022-11-10T14:00:24.501Z,101780.81
2022-11-10T14:02:55.051Z,101774.09
2022-11-10T14:06:04.730Z,101776.41
2022-11-10T14:08:47.243Z,101777.00
2022-11-10T14:11:20.776Z,101779.03
2022-11-10T14:13:53.879Z,101784.13
2022-11-10T14:16:24.206Z,101787.84
2022-11-10T14:18:58.899Z,101781.22
2022-11-10T14:21:33.368Z,101790.41
2022-11-10T14:24:12.344Z,101792.72
2022-11-10T14:26:43.923Z,101796.72
2022-11-10T14:29:34.648Z,101786.59
2022-11-10T14:32:05.588Z,101793.41
2022-11-10T14:34:41.847Z,101799.06
2022-11-10T14:37:16.626Z,101796.88
2022-11-10T14:39:45.859Z,101795.78
2022-11-10T14:42:20.291Z,101800.75
2022-11-10T14:44:48.589Z,101794.03
2022-11-10T14:47:28.244Z,101806.56
2022-11-10T14:50:17.147Z,101811.22
2022-11-10T14:52:48.012Z,101814.50
2022-11-10T14:55:20.733Z,101813.41
2022-11-10T14:57:51.652Z,101812.03
2022-11-10T15:00:25.100Z,101818.66
2022-11-10T15:02:54.210Z,101829.97
2022-11-10T15:05:22.795Z,101828.13
2022-11-10T15:07:54.649Z,101834.47
2022-11-10T15:10:26.563Z,101836.59
2022-11-10T15:13:06.118Z,101834.94
2022-11-10T15:15:33.812Z,101839.13
2022-11-10T15:18:01.513Z,101842.25
2022-11-10T15:20:40.177Z,101836.91
2022-11-10T15:23:22.503Z,101835.22
2022-11-10T15:25:53.351Z,101830.16
2022-11-10T15:28:29.045Z,101831.31
2022-11-10T15:30:59.854Z,101833.44
2022-11-10T15:33:31.264Z,101836.41
2022-11-10T15:36:15.915Z,101839.22
2022-11-10T15:38:43.651Z,101840.38
2022-11-10T15:41:17.341Z,101844.88
2022-11-10T15:43:45.095Z,101825.72
2022-11-10T15:46:18.937Z,101836.56
2022-11-10T15:48:49.594Z,101829.97
2022-11-10T15:51:24.672Z,101834.91
2022-11-10T15:53:54.667Z,101840.69
2022-11-10T15:56:25.826Z,101849.03
2022-11-10T15:59:00.574Z,101849.44
2022-11-10T16:01:30.000Z,101851.84
2022-11-10T16:03:58.001Z,101844.69
2022-11-10T16:06:25.670Z,101850.75
2022-11-10T16:08:53.430Z,101860.03
2022-11-10T16:11:24.625Z,101856.25
2022-11-10T16:13:53.105Z,101858.78
2022-11-10T16:16:23.787Z,101860.47
2022-11-10T16:18:51.753Z,101869.75
2022-11-10T16:21:21.800Z,101866.69
2022-11-10T16:23:49.867Z,101869.91
2022-11-10T16:26:21.162Z,101861.22
2022-11-10T16:28:51.133Z,101866.25
2022-11-10T16:31:21.864Z,101865.84
2022-11-10T16:33:50.386Z,101869.78
2022-11-10T16:36:25.741Z,101872.16
2022-11-10T16:38:54.509Z,101878.06
2022-11-10T16:41:22.619Z,101890.28
2022-11-10T16:43:51.718Z,101894.84
2022-11-10T16:46:22.365Z,101892.16
2022-11-10T16:48:51.880Z,101890.69
2022-11-10T16:51:19.797Z,101889.56
2022-11-10T16:53:47.678Z,101891.38
2022-11-10T16:56:16.803Z,101889.81
2022-11-10T16:58:44.416Z,101895.59
2022-11-10T17:01:19.729Z,101904.28
2022-11-10T17:03:50.447Z,101919.84
2022-11-10T17:06:19.742Z,101926.81
2022-11-10T17:08:48.571Z,101920.03
2022-11-10T17:11:16.357Z,101922.56
2022-11-10T17:13:44.661Z,101920.63
2022-11-10T17:16:22.018Z,101921.59
2022-11-10T17:18:50.627Z,101922.41
2022-11-10T17:21:19.430Z,101928.41
2022-11-10T17:23:47.247Z,101928.53
2022-11-10T17:26:17.216Z,101925.59
2022-11-10T17:28:44.962Z,101935.41
2022-11-10T17:31:14.230Z,101935.91
2022-11-10T17:33:41.859Z,101934.50
2022-11-10T17:36:14.995Z,101943.28
2022-11-10T17:38:43.921Z,101954.19
2022-11-10T17:41:16.329Z,101956.84
2022-11-10T17:43:45.955Z,101950.97
2022-11-10T17:46:15.873Z,101965.31
2022-11-10T17:48:44.086Z,101958.66
2022-11-10T17:51:19.202Z,101955.03
2022-11-10T17:53:46.983Z,101961.22
2022-11-10T17:56:15.027Z,101963.81
2022-11-10T17:58:42.726Z,101961.31
2022-11-10T18:01:16.640Z,101956.03
2022-11-10T18:03:44.377Z,101953.59
2022-11-10T18:06:14.725Z,101951.78
2022-11-10T18:08:42.948Z,101962.31
2022-11-10T18:11:11.581Z,101957.38
2022-11-10T18:13:40.431Z,101956.53
2022-11-10T18:16:09.561Z,101965.63
2022-11-10T18:18:39.034Z,101971.28
2022-11-10T18:21:07.360Z,101977.94
2022-11-10T18:23:35.095Z,101976.56
2022-11-10T18:26:06.991Z,101970.38
2022-11-10T18:28:35.089Z,101962.53
2022-11-10T18:31:07.481Z,101970.50
2022-11-10T18:33:35.133Z,101970.94
2022-11-10T18:36:05.037Z,101965.41
2022-11-10T18:38:32.963Z,101967.34
2022-11-10T18:41:24.463Z,101969.88
2022-11-10T18:43:52.333Z,101964.50
2022-11-10T18:46:20.051Z,101970.44
2022-11-10T18:48:47.761Z,101971.91
2022-11-10T18:51:17.110Z,101972.59
2022-11-10T18:53:44.884Z,101975.25
2022-11-10T18:56:14.251Z,101971.06
2022-11-10T18:58:42.439Z,101970.09
2022-11-10T19:01:11.724Z,101981.44
2022-11-10T19:03:39.441Z,101974.19
2022-11-10T19:06:10.562Z,101980.00
2022-11-10T19:08:40.352Z,101989.94
2022-11-10T19:11:09.311Z,101983.53
2022-11-10T19:13:37.785Z,101980.13
2022-11-10T19:16:07.613Z,101975.94
2022-11-10T19:18:35.291Z,101977.63
2022-11-10T19:21:06.436Z,101981.38
2022-11-10T19:23:34.645Z,101988.50
2022-11-10T19:26:04.674Z,101990.53
2022-11-10T19:28:32.730Z,101993.72
2022-11-10T19:31:01.445Z,102000.72
2022-11-10T19:33:30.470Z,102003.38
2022-11-10T19:36:03.254Z,102008.09
2022-11-10T19:38:31.060Z,102005.31
2022-11-10T19:40:59.116Z,102000.72
2022-11-10T19:43:30.768Z,102011.13
2022-11-10T19:46:01.970Z,102024.78
2022-11-10T19:48:30.370Z,102031.16
2022-11-10T19:51:00.370Z,102038.91
2022-11-10T19:53:28.242Z,102059.09
2022-11-10T19:56:01.640Z,102078.41
2022-11-10T19:58:31.322Z,102074.78
2022-11-10T20:01:00.096Z,102073.00
2022-11-10T20:03:29.942Z,102078.56
2022-11-10T20:06:01.454Z,102076.13
2022-11-10T20:08:29.735Z,102076.13
2022-11-10T20:11:01.212Z,102082.44
2022-11-10T20:13:30.761Z,102080.63
2022-11-10T20:15:58.399Z,102071.69
2022-11-10T20:18:26.052Z,102069.53
2022-11-10T20:20:53.724Z,102064.31
2022-11-10T20:23:21.680Z,102067.56
2022-11-10T20:25:49.442Z,102057.28
2022-11-10T20:28:17.088Z,102057.28
2022-11-10T20:30:46.049Z,102062.34
2022-11-10T20:33:13.736Z,102073.69
2022-11-10T20:35:42.903Z,102070.19
2022-11-10T20:38:11.109Z,102063.28
2022-11-10T20:40:44.470Z,102061.59
2022-11-10T20:43:13.985Z,102064.81
2022-11-10T20:45:41.735Z,102061.66
2022-11-10T20:48:10.765Z,102065.56
2022-11-10T20:50:40.889Z,102056.88
2022-11-10T20:53:08.498Z,102060.25
2022-11-10T20:55:53.204Z,102059.41
2022-11-10T20:58:21.336Z,102070.53
2022-11-10T21:00:48.945Z,102060.34
2022-11-10T21:03:17.896Z,102060.56
2022-11-10T21:05:45.908Z,102059.59
2022-11-10T21:08:13.604Z,102058.84
2022-11-10T21:10:41.369Z,102052.09
2022-11-10T21:13:08.082Z,102070.13
2022-11-10T21:15:38.289Z,102077.72
2022-11-10T21:18:05.967Z,102079.28
2022-11-10T21:20:35.327Z,102071.25
2022-11-10T21:23:03.673Z,102073.31
2022-11-10T21:25:31.496Z,102066.19
2022-11-10T21:27:59.162Z,102073.53
2022-11-10T21:30:26.787Z,102076.19
2022-11-10T21:32:54.398Z,102067.94
2022-11-10T21:35:24.096Z,102069.88
2022-11-10T21:37:54.588Z,102069.19
2022-11-10T21:40:22.208Z,102063.53
2022-11-10T21:42:54.934Z,102056.38
2022-11-10T21:45:22.568Z,102058.97
2022-11-10T21:47:50.213Z,102054.97
2022-11-10T21:50:18.769Z,102070.22
2022-11-10T21:52:46.337Z,102065.81
2022-11-10T21:55:15.391Z,102057.00
2022-11-10T21:57:43.104Z,102055.13
2022-11-10T22:00:12.101Z,102054.19
2022-11-10T22:02:39.703Z,102053.91
2022-11-10T22:05:07.734Z,102039.78
2022-11-10T22:07:35.353Z,102044.63
2022-11-10T22:10:20.689Z,102044.16
2022-11-10T22:13:07.190Z,102042.28
2022-11-10T22:15:52.405Z,102047.09
2022-11-10T22:18:38.327Z,102058.75
2022-11-10T22:21:06.856Z,102058.13
2022-11-10T22:23:52.242Z,102068.84
2022-11-10T22:26:20.423Z,102077.28
2022-11-10T22:28:49.449Z,102071.63
2022-11-10T22:31:17.084Z,102071.41
2022-11-10T22:33:44.809Z,102075.97
2022-11-10T22:36:14.169Z,102087.91
2022-11-10T22:38:42.595Z,102083.66
2022-11-10T22:41:32.176Z,102083.25
2022-11-10T22:44:04.653Z,102086.88
2022-11-10T22:46:34.095Z,102085.72
2022-11-10T22:49:02.300Z,102090.28
2022-11-10T22:51:32.807Z,102082.44
2022-11-10T22:54:01.288Z,102073.56
2022-11-10T22:56:29.808Z,102073.38
2022-11-10T22:59:00.116Z,102071.66
2022-11-10T23:01:29.679Z,102072.31
2022-11-10T23:03:58.518Z,102070.06
2022-11-10T23:06:26.162Z,102067.50
2022-11-10T23:08:54.236Z,102067.00
2022-11-10T23:11:23.949Z,102061.59
2022-11-10T23:13:52.008Z,102065.00
2022-11-10T23:16:21.659Z,102064.59
2022-11-10T23:18:52.349Z,102067.56
2022-11-10T23:21:22.549Z,102074.31
2022-11-10T23:23:50.830Z,102070.75
2022-11-10T23:26:20.012Z,102067.66
2022-11-10T23:28:48.006Z,102058.97
2022-11-10T23:31:17.841Z,102059.16
2022-11-10T23:33:47.319Z,102064.28
2022-11-10T23:36:18.388Z,102067.09
2022-11-10T23:38:47.048Z,102082.50
2022-11-10T23:41:16.140Z,102083.44
2022-11-10T23:43:44.222Z,102074.66
2022-11-10T23:46:13.019Z,102083.53
2022-11-10T23:48:42.015Z,102078.53
2022-11-10T23:51:12.377Z,102088.19
2022-11-10T23:53:41.826Z,102081.53
2022-11-10T23:56:13.581Z,102092.78
2022-11-10T23:58:41.819Z,102092.88
